Wolf Creek Observed Data For Previous 48 Hours

Caption
Day and Hour Reservoir Elevation (behind dam)* Tailwater Elevation (below dam)* Average Hourly Discharge*
5/02/2016 1 AM CDT 716.21 543.81 20
5/02/2016 2 AM CDT 716.27 543.47 20
5/02/2016 3 AM CDT 716.33 543.13 20
5/02/2016 4 AM CDT 716.39 542.89 20
5/02/2016 5 AM CDT 716.45 542.45 20
5/02/2016 6 AM CDT 716.51 542.31 20
5/02/2016 7 AM CDT 716.58 542.38 20
5/02/2016 8 AM CDT 716.63 542.33 20
5/02/2016 9 AM CDT 716.68 542.38 20
5/02/2016 10 AM CDT 716.72 545.42 3,480
5/02/2016 11 AM CDT 716.80 549.10 7,020
5/02/2016 12 PM CDT 716.83 552.33 14,140
5/02/2016 1 PM CDT 716.87 553.97 14,220
5/02/2016 2 PM CDT 716.90 554.50 14,220
5/02/2016 3 PM CDT 716.96 552.16 10,610
5/02/2016 4 PM CDT 717.01 550.11 3,520
5/02/2016 5 PM CDT 717.04 548.44 3,500
5/02/2016 6 PM CDT 717.08 546.38 20
5/02/2016 7 PM CDT 717.19 545.39 20
5/02/2016 8 PM CDT 717.24 544.64 20
5/02/2016 9 PM CDT 717.32 543.82 20
5/02/2016 10 PM CDT 717.38 543.38 20
5/02/2016 11 PM CDT 717.46 543.06 20
5/03/2016 12 AM CDT 717.52 542.82 20
5/03/2016 1 AM CDT 717.68 542.68 20
5/03/2016 2 AM CDT 717.77 542.37 20
5/03/2016 3 AM CDT 717.83 542.63 20
5/03/2016 4 AM CDT 717.89 542.19 20
5/03/2016 5 AM CDT 717.98 545.28 3,460
5/03/2016 6 AM CDT 718.05 543.55 20
5/03/2016 7 AM CDT 718.15 543.05 20
5/03/2016 8 AM CDT 718.25 542.85 20
5/03/2016 9 AM CDT 718.32 545.72 3,460
5/03/2016 10 AM CDT 718.40 546.40 3,470
5/03/2016 11 AM CDT 718.45 546.65 3,470
5/03/2016 12 PM CDT 718.50 549.15 6,980
5/03/2016 1 PM CDT 718.60 549.30 6,980
5/03/2016 2 PM CDT 718.68 549.48 6,980
5/03/2016 3 PM CDT 718.74 548.04 3,480
5/03/2016 4 PM CDT 718.80 546.10 20
5/03/2016 5 PM CDT 718.84 545.04 20
5/03/2016 6 PM CDT 718.87 544.07 20
5/03/2016 7 PM CDT 718.94 546.14 3,460
5/03/2016 8 PM CDT 718.99 546.59 3,470
5/03/2016 9 PM CDT 719.07 546.87 3,470
5/03/2016 10 PM CDT 719.12 544.72 20
5/03/2016 11 PM CDT 719.16 544.06 20
5/04/2016 12 AM CDT 719.21 543.71 20
5/04/2016 1 AM CDT 719.28 543.48 20
5/04/2016 2 AM CDT 719.35 543.35 20
5/04/2016 3 AM CDT 719.39 543.19 20
5/04/2016 4 AM CDT 719.47 542.87 20
5/04/2016 5 AM CDT 719.55 542.55 20
5/04/2016 6 AM CDT 719.57 542.17 20
5/04/2016 7 AM CDT 719.60 545.40 3,450
5/04/2016 8 AM CDT 719.65 546.05 3,450
5/04/2016 9 AM CDT 719.70 546.60 3,460
5/04/2016 10 AM CDT 719.75 546.95 3,460
5/04/2016 11 AM CDT 719.80 547.10 3,460
5/04/2016 12 PM CDT 719.85 547.05 3,460
5/04/2016 1 PM CDT 719.90 547.10 3,460
5/04/2016 2 PM CDT 719.95 547.15 3,460
5/04/2016 3 PM CDT 719.95 547.15 3,440
5/04/2016 4 PM CDT 719.95 547.15 3,440
5/04/2016 5 PM CDT 719.95 547.15 3,440
5/04/2016 6 PM CDT 719.95 547.15 6,960

Elevations are in feet above sea level. Discharges are in cubic feet per second and are reported at the end of the hour.